createdAt,value
2022-11-10T00:03:40.606Z,9.16
2022-11-10T00:09:21.219Z,9.17
2022-11-10T00:15:20.330Z,9.18
2022-11-10T00:21:07.091Z,9.16
2022-11-10T00:26:47.428Z,9.17
2022-11-10T00:32:27.767Z,9.20
2022-11-10T00:38:08.012Z,9.13
2022-11-10T00:43:48.727Z,9.21
2022-11-10T00:49:29.249Z,9.20
2022-11-10T00:55:09.687Z,9.21
2022-11-10T01:00:50.201Z,9.21
2022-11-10T01:06:30.340Z,9.21
2022-11-10T01:12:11.030Z,9.21
2022-11-10T01:17:51.689Z,9.17
2022-11-10T01:23:32.870Z,9.20
2022-11-10T01:29:12.951Z,9.20
2022-11-10T01:34:53.450Z,9.19
2022-11-10T01:40:34.243Z,9.11
2022-11-10T01:46:15.164Z,9.17
2022-11-10T01:52:13.139Z,9.07
2022-11-10T01:57:53.987Z,9.09
2022-11-10T02:03:56.620Z,9.12
2022-11-10T02:09:36.969Z,9.10
2022-11-10T02:15:19.050Z,8.99
2022-11-10T02:20:59.649Z,9.08
2022-11-10T02:26:51.940Z,9.02
2022-11-10T02:32:32.029Z,8.99
2022-11-10T02:38:15.080Z,9.04
2022-11-10T02:43:58.488Z,9.04
2022-11-10T02:49:39.069Z,9.02
2022-11-10T02:55:19.001Z,8.91
2022-11-10T03:00:59.539Z,8.94
2022-11-10T03:06:54.430Z,8.98
2022-11-10T03:12:38.589Z,8.98
2022-11-10T03:30:55.431Z,8.95
2022-11-10T03:36:35.580Z,8.87
2022-11-10T03:42:15.892Z,8.84
2022-11-10T03:47:56.363Z,8.89
2022-11-10T03:53:37.069Z,8.93
2022-11-10T03:59:20.081Z,8.89
2022-11-10T04:05:18.831Z,8.90
2022-11-10T04:10:59.279Z,8.87
2022-11-10T04:16:39.460Z,8.87
2022-11-10T04:22:39.904Z,8.89
2022-11-10T04:28:20.134Z,8.81
2022-11-10T04:34:01.300Z,8.88
2022-11-10T04:39:41.357Z,8.87
2022-11-10T04:45:21.861Z,8.88
2022-11-10T04:51:06.841Z,8.88
2022-11-10T04:56:46.962Z,8.81
2022-11-10T05:02:39.720Z,8.82
2022-11-10T05:09:04.511Z,8.71
2022-11-10T05:14:59.180Z,8.79
2022-11-10T05:21:15.232Z,8.72
2022-11-10T05:27:09.844Z,8.68
2022-11-10T05:32:50.169Z,8.74
2022-11-10T05:38:33.469Z,8.85
2022-11-10T05:44:13.689Z,8.87
2022-11-10T05:49:54.360Z,8.87
2022-11-10T05:55:37.151Z,8.84
2022-11-10T06:01:17.872Z,8.88
2022-11-10T06:06:58.097Z,8.86
2022-11-10T06:12:38.553Z,8.89
2022-11-10T06:18:19.172Z,8.82
2022-11-10T06:23:59.210Z,8.90
2022-11-10T06:29:39.893Z,8.83
2022-11-10T06:35:21.660Z,8.93
2022-11-10T06:41:01.810Z,8.97
2022-11-10T06:46:42.503Z,9.02
2022-11-10T06:52:22.883Z,8.99
2022-11-10T06:58:03.366Z,8.95
2022-11-10T07:04:05.110Z,9.00
2022-11-10T07:09:44.101Z,9.04
2022-11-10T07:15:25.222Z,9.06
2022-11-10T07:21:06.040Z,9.03
2022-11-10T07:26:46.635Z,9.00
2022-11-10T07:32:27.028Z,9.11
2022-11-10T07:38:16.321Z,9.10
2022-11-10T07:43:56.668Z,9.18
2022-11-10T07:49:36.741Z,9.11
2022-11-10T07:55:17.289Z,9.25
2022-11-10T08:00:57.521Z,9.38
2022-11-10T08:06:37.992Z,9.41
2022-11-10T08:12:18.879Z,9.61
2022-11-10T08:18:03.415Z,9.75
2022-11-10T08:23:43.831Z,9.75
2022-11-10T08:29:26.231Z,9.73
2022-11-10T08:35:07.340Z,9.64
2022-11-10T08:40:47.760Z,9.71
2022-11-10T08:46:27.921Z,9.72
2022-11-10T08:52:08.412Z,9.68
2022-11-10T08:57:49.413Z,9.65
2022-11-10T09:03:32.111Z,9.69
2022-11-10T09:09:17.681Z,9.60
2022-11-10T09:14:58.130Z,9.63
2022-11-10T09:20:44.630Z,9.58
2022-11-10T09:26:27.561Z,9.59
2022-11-10T09:32:11.951Z,9.67
2022-11-10T09:37:56.293Z,9.65
2022-11-10T09:43:52.041Z,9.67
2022-11-10T09:49:53.862Z,9.76
2022-11-10T09:55:46.281Z,9.77
2022-11-10T10:02:07.008Z,9.76
2022-11-10T10:08:01.436Z,9.70
2022-11-10T10:14:00.982Z,9.85
2022-11-10T10:19:52.615Z,9.85
2022-11-10T10:25:39.367Z,9.81
2022-11-10T10:31:29.112Z,9.75
2022-11-10T10:37:27.137Z,9.81
2022-11-10T10:43:08.111Z,9.72
2022-11-10T10:48:53.865Z,9.75
2022-11-10T10:54:48.620Z,9.66
2022-11-10T11:00:32.685Z,9.68
2022-11-10T11:06:19.797Z,9.72
2022-11-10T11:12:08.080Z,9.61
2022-11-10T11:18:07.601Z,9.53
2022-11-10T11:24:01.661Z,9.54
2022-11-10T11:30:09.881Z,9.61
2022-11-10T11:36:21.542Z,9.58
2022-11-10T11:42:50.281Z,9.41
2022-11-10T11:49:06.488Z,9.48
2022-11-10T11:54:52.309Z,9.51
2022-11-10T12:00:46.071Z,9.41
2022-11-10T12:07:03.420Z,9.49
2022-11-10T12:19:37.940Z,9.41
2022-11-10T12:25:46.711Z,9.31
2022-11-10T12:31:35.221Z,9.31
2022-11-10T12:37:40.729Z,9.28
2022-11-10T12:43:36.258Z,9.16
2022-11-10T12:49:37.602Z,9.16
2022-11-10T12:55:24.650Z,9.15
2022-11-10T13:01:15.102Z,9.08
2022-11-10T13:07:13.083Z,9.10
2022-11-10T13:13:17.182Z,9.14
2022-11-10T13:19:01.048Z,9.10
2022-11-10T13:24:50.514Z,9.15
2022-11-10T13:31:04.047Z,9.14
2022-11-10T13:36:48.990Z,9.05
2022-11-10T13:42:31.930Z,8.96
2022-11-10T13:48:34.617Z,8.96
2022-11-10T13:54:38.133Z,9.05
2022-11-10T14:00:21.550Z,9.03
2022-11-10T14:06:10.559Z,8.90
2022-11-10T14:11:56.240Z,8.95
2022-11-10T14:17:44.693Z,8.90
2022-11-10T14:23:30.587Z,8.98
2022-11-10T14:29:41.490Z,8.87
2022-11-10T14:35:30.181Z,8.80
2022-11-10T14:41:26.101Z,8.88
2022-11-10T14:47:26.123Z,8.91
2022-11-10T14:53:36.531Z,8.91
2022-11-10T14:59:19.811Z,8.90
2022-11-10T15:05:02.655Z,8.87
2022-11-10T15:10:53.850Z,8.75
2022-11-10T15:16:39.299Z,8.82
2022-11-10T15:22:40.041Z,8.78
2022-11-10T15:28:34.041Z,8.87
2022-11-10T15:34:47.110Z,8.89
2022-11-10T15:40:36.950Z,8.85
2022-11-10T15:46:23.279Z,8.86
2022-11-10T15:52:14.212Z,8.86
2022-11-10T15:57:54.634Z,8.78
2022-11-10T16:03:35.173Z,8.78
2022-11-10T16:09:15.649Z,8.77
2022-11-10T16:14:56.389Z,8.71
2022-11-10T16:20:36.530Z,8.71
2022-11-10T16:26:21.750Z,8.74
2022-11-10T16:32:05.491Z,8.66
2022-11-10T16:37:45.881Z,8.58
2022-11-10T16:43:27.701Z,8.54
2022-11-10T16:49:21.890Z,8.58
2022-11-10T16:55:14.454Z,8.53
2022-11-10T17:01:03.479Z,8.47
2022-11-10T17:06:44.316Z,8.46
2022-11-10T17:12:31.731Z,8.47
2022-11-10T17:18:17.832Z,8.47
2022-11-10T17:23:59.591Z,8.47
2022-11-10T17:29:40.871Z,8.47
2022-11-10T17:35:28.874Z,8.53
2022-11-10T17:41:20.761Z,8.59
2022-11-10T17:47:01.891Z,8.53
2022-11-10T17:52:44.381Z,8.45
2022-11-10T17:58:33.988Z,8.43
2022-11-10T18:04:18.631Z,8.51
2022-11-10T18:09:59.193Z,8.48
2022-11-10T18:15:53.761Z,8.47
2022-11-10T18:21:38.053Z,8.53
2022-11-10T18:27:21.852Z,8.44
2022-11-10T18:33:06.935Z,8.53
2022-11-10T18:39:06.581Z,8.41
2022-11-10T18:46:27.063Z,8.47
2022-11-10T18:52:30.071Z,8.44
2022-11-10T19:11:50.828Z,8.50
2022-11-10T19:17:39.561Z,8.57
2022-11-10T19:23:26.298Z,8.43
2022-11-10T19:29:08.007Z,8.43
2022-11-10T19:34:48.815Z,8.39
2022-11-10T19:40:32.447Z,8.48
2022-11-10T19:46:21.407Z,8.46
2022-11-10T19:52:02.188Z,8.43
2022-11-10T19:57:44.495Z,8.47
2022-11-10T20:03:25.723Z,8.41
2022-11-10T20:09:07.066Z,8.35
2022-11-10T20:14:49.809Z,8.36
2022-11-10T20:20:33.367Z,8.35
2022-11-10T20:26:17.366Z,8.36
2022-11-10T20:31:59.535Z,8.33
2022-11-10T20:37:48.868Z,8.44
2022-11-10T20:43:40.247Z,8.36
2022-11-10T20:49:27.531Z,8.49
2022-11-10T20:55:09.727Z,8.35
2022-11-10T21:01:04.825Z,8.41
2022-11-10T21:07:50.198Z,8.28
2022-11-10T21:13:02.026Z,8.19
2022-11-10T21:18:50.093Z,8.17
2022-11-10T21:24:54.146Z,8.25
2022-11-10T21:30:35.826Z,8.16
2022-11-10T21:36:17.227Z,8.24
2022-11-10T21:42:00.766Z,8.14
2022-11-10T21:47:40.953Z,8.14
2022-11-10T21:53:24.770Z,8.09
2022-11-10T21:59:08.648Z,8.19
2022-11-10T22:04:50.066Z,8.14
2022-11-10T22:10:48.933Z,8.10
2022-11-10T22:17:00.345Z,8.20
2022-11-10T22:22:40.746Z,8.10
2022-11-10T22:28:21.486Z,8.09
2022-11-10T22:34:02.707Z,8.10
2022-11-10T22:40:04.626Z,8.10
2022-11-10T22:45:46.026Z,8.10
2022-11-10T22:51:28.364Z,8.11
2022-11-10T22:57:12.014Z,8.12
2022-11-10T23:02:55.663Z,8.14
2022-11-10T23:08:37.386Z,8.19
2022-11-10T23:14:22.064Z,7.98
2022-11-10T23:20:03.363Z,8.00
2022-11-10T23:25:44.388Z,7.87
2022-11-10T23:31:27.306Z,7.97
2022-11-10T23:37:09.543Z,7.96
2022-11-10T23:42:52.883Z,7.88
2022-11-10T23:48:32.963Z,7.90
2022-11-10T23:54:14.165Z,7.97
2022-11-10T23:59:54.624Z,7.96
